createdAt,value
2022-10-13T00:00:53.430Z,20.84
2022-10-13T00:03:19.912Z,20.86
2022-10-13T00:05:48.695Z,20.83
2022-10-13T00:08:19.369Z,20.85
2022-10-13T00:10:48.189Z,20.84
2022-10-13T00:13:15.133Z,20.84
2022-10-13T00:15:45.558Z,20.83
2022-10-13T00:18:12.763Z,20.83
2022-10-13T00:20:48.485Z,20.82
2022-10-13T00:23:15.663Z,20.82
2022-10-13T00:25:43.863Z,20.82
2022-10-13T00:28:10.351Z,20.81
2022-10-13T00:30:38.073Z,20.82
2022-10-13T00:33:04.788Z,20.81
2022-10-13T00:35:31.099Z,20.80
2022-10-13T00:37:57.474Z,20.80
2022-10-13T00:40:23.981Z,20.79
2022-10-13T00:42:50.308Z,20.79
2022-10-13T00:45:23.510Z,20.79
2022-10-13T00:47:59.132Z,20.78
2022-10-13T00:50:39.498Z,20.77
2022-10-13T00:53:07.163Z,20.78
2022-10-13T00:55:36.610Z,20.79
2022-10-13T00:58:06.451Z,20.77
2022-10-13T01:00:34.142Z,20.77
2022-10-13T01:03:01.479Z,20.77
2022-10-13T01:05:29.580Z,20.77
2022-10-13T01:07:57.227Z,20.76
2022-10-13T01:10:34.811Z,20.75
2022-10-13T01:13:07.477Z,20.75
2022-10-13T01:15:57.003Z,20.75
2022-10-13T01:18:32.330Z,20.74
2022-10-13T01:21:18.262Z,20.75
2022-10-13T01:24:07.979Z,20.74
2022-10-13T01:26:34.292Z,20.73
2022-10-13T01:29:15.892Z,20.74
2022-10-13T01:31:55.380Z,20.72
2022-10-13T01:34:43.980Z,20.72
2022-10-13T01:37:26.428Z,20.72
2022-10-13T01:40:15.279Z,20.71
2022-10-13T01:42:55.248Z,20.71
2022-10-13T01:45:28.555Z,20.71
2022-10-13T01:47:57.508Z,20.70
2022-10-13T01:50:23.832Z,20.70
2022-10-13T01:52:51.943Z,20.69
2022-10-13T01:55:18.792Z,20.69
2022-10-13T01:57:45.404Z,20.69
2022-10-13T02:00:16.742Z,20.68
2022-10-13T02:03:07.096Z,20.67
2022-10-13T02:05:49.244Z,20.69
2022-10-13T02:08:38.591Z,20.68
2022-10-13T02:11:16.090Z,20.67
2022-10-13T02:13:54.503Z,20.68
2022-10-13T02:16:23.466Z,20.66
2022-10-13T02:18:51.172Z,20.67
2022-10-13T02:21:18.331Z,20.66
2022-10-13T02:23:45.767Z,20.67
2022-10-13T02:26:13.243Z,20.66
2022-10-13T02:28:40.203Z,20.66
2022-10-13T02:31:09.219Z,20.66
2022-10-13T02:33:35.687Z,20.66
2022-10-13T02:36:02.011Z,20.65
2022-10-13T02:38:28.311Z,20.65
2022-10-13T02:40:54.950Z,20.64
2022-10-13T02:43:21.279Z,20.63
2022-10-13T02:45:47.677Z,20.64
2022-10-13T02:48:13.982Z,20.62
2022-10-13T02:50:40.292Z,20.64
2022-10-13T02:53:06.587Z,20.62
2022-10-13T02:55:32.888Z,20.62
2022-10-13T02:57:59.190Z,20.62
2022-10-13T03:00:25.895Z,20.62
2022-10-13T03:02:52.280Z,20.62
2022-10-13T03:05:18.656Z,20.61
2022-10-13T03:07:44.962Z,20.61
2022-10-13T03:10:11.277Z,20.61
2022-10-13T03:12:37.580Z,20.60
2022-10-13T03:15:04.256Z,20.60
2022-10-13T03:17:30.559Z,20.60
2022-10-13T03:19:56.902Z,20.60
2022-10-13T03:22:23.457Z,20.59
2022-10-13T03:24:49.853Z,20.59
2022-10-13T03:27:16.180Z,20.58
2022-10-13T03:29:42.540Z,20.57
2022-10-13T03:32:09.128Z,20.58
2022-10-13T03:34:35.447Z,20.58
2022-10-13T03:37:01.824Z,20.57
2022-10-13T03:39:28.219Z,20.57
2022-10-13T03:41:54.544Z,20.56
2022-10-13T03:44:20.868Z,20.56
2022-10-13T03:46:47.204Z,20.56
2022-10-13T03:49:13.633Z,20.56
2022-10-13T03:51:39.985Z,20.55
2022-10-13T03:54:06.411Z,20.56
2022-10-13T03:56:32.782Z,20.54
2022-10-13T03:59:00.466Z,20.55
2022-10-13T04:01:29.174Z,20.55
2022-10-13T04:03:56.989Z,20.54
2022-10-13T04:06:24.656Z,20.53
2022-10-13T04:08:51.608Z,20.54
2022-10-13T04:11:18.960Z,20.53
2022-10-13T04:13:46.076Z,20.54
2022-10-13T04:16:15.547Z,20.52
2022-10-13T04:18:44.669Z,20.52
2022-10-13T04:21:13.982Z,20.51
2022-10-13T04:23:41.782Z,20.51
2022-10-13T04:26:18.884Z,20.52
2022-10-13T04:28:46.584Z,20.51
2022-10-13T04:31:13.076Z,20.51
2022-10-13T04:33:39.812Z,20.50
2022-10-13T04:36:08.752Z,20.51
2022-10-13T04:38:35.083Z,20.51
2022-10-13T04:41:06.204Z,20.49
2022-10-13T04:43:33.732Z,20.49
2022-10-13T04:46:05.267Z,20.49
2022-10-13T04:48:31.651Z,20.49
2022-10-13T04:51:02.372Z,20.48
2022-10-13T04:53:29.480Z,20.49
2022-10-13T04:55:56.868Z,20.49
2022-10-13T04:58:23.534Z,20.48
2022-10-13T05:00:50.334Z,20.48
2022-10-13T05:03:16.875Z,20.47
2022-10-13T05:05:43.388Z,20.48
2022-10-13T05:08:09.695Z,20.47
2022-10-13T05:10:36.011Z,20.46
2022-10-13T05:13:02.405Z,20.46
2022-10-13T05:15:28.716Z,20.45
2022-10-13T05:17:55.144Z,20.45
2022-10-13T05:20:21.479Z,20.45
2022-10-13T05:22:47.774Z,20.45
2022-10-13T05:25:14.117Z,20.44
2022-10-13T05:27:40.471Z,20.43
2022-10-13T05:30:07.420Z,20.44
2022-10-13T05:32:35.172Z,20.43
2022-10-13T05:35:01.525Z,20.43
2022-10-13T05:37:27.857Z,20.43
2022-10-13T05:39:54.168Z,20.42
2022-10-13T05:42:20.848Z,20.41
2022-10-13T05:44:47.417Z,20.43
2022-10-13T05:47:13.806Z,20.42
2022-10-13T05:49:40.886Z,20.42
2022-10-13T05:52:10.539Z,20.41
2022-10-13T05:54:41.955Z,20.41
2022-10-13T05:57:17.202Z,20.39
2022-10-13T05:59:49.419Z,20.40
2022-10-13T06:02:19.354Z,20.41
2022-10-13T06:04:48.935Z,20.39
2022-10-13T06:07:15.461Z,20.39
2022-10-13T06:09:42.904Z,20.38
2022-10-13T06:12:10.091Z,20.38
2022-10-13T06:14:36.840Z,20.38
2022-10-13T06:17:03.591Z,20.37
2022-10-13T06:19:29.927Z,20.37
2022-10-13T06:21:59.969Z,20.38
2022-10-13T06:24:28.959Z,20.37
2022-10-13T06:26:55.254Z,20.37
2022-10-13T06:29:21.625Z,20.37
2022-10-13T06:31:47.924Z,20.37
2022-10-13T06:34:14.631Z,20.37
2022-10-13T06:36:42.060Z,20.38
2022-10-13T06:39:08.937Z,20.37
2022-10-13T06:41:35.254Z,20.38
2022-10-13T06:44:01.612Z,20.38
2022-10-13T06:46:27.920Z,20.38
2022-10-13T06:48:54.256Z,20.40
2022-10-13T06:51:21.234Z,20.40
2022-10-13T06:53:47.735Z,20.41
2022-10-13T06:56:14.272Z,20.41
2022-10-13T06:58:43.494Z,20.42
2022-10-13T07:01:13.026Z,20.43
2022-10-13T07:03:39.324Z,20.44
2022-10-13T07:06:06.615Z,20.45
2022-10-13T07:08:34.385Z,20.46
2022-10-13T07:11:09.536Z,20.46
2022-10-13T07:13:40.118Z,20.47
2022-10-13T07:16:10.065Z,20.47
2022-10-13T07:18:36.959Z,20.48
2022-10-13T07:21:03.677Z,20.49
2022-10-13T07:23:30.360Z,20.50
2022-10-13T07:25:57.098Z,20.49
2022-10-13T07:28:24.638Z,20.49
2022-10-13T07:30:51.075Z,20.50
2022-10-13T07:33:17.420Z,20.50
2022-10-13T07:35:43.715Z,20.52
2022-10-13T07:38:10.127Z,20.52
2022-10-13T07:40:36.443Z,20.53
2022-10-13T07:43:02.880Z,20.53
2022-10-13T07:45:29.236Z,20.53
2022-10-13T07:47:56.268Z,20.55
2022-10-13T07:50:22.807Z,20.54
2022-10-13T07:52:49.266Z,20.56
2022-10-13T07:55:15.731Z,20.55
2022-10-13T07:57:42.040Z,20.56
2022-10-13T08:00:09.683Z,20.55
2022-10-13T08:02:36.047Z,20.55
2022-10-13T08:05:03.639Z,20.56
2022-10-13T08:07:29.980Z,20.56
2022-10-13T08:09:56.275Z,20.58
2022-10-13T08:12:22.879Z,20.59
2022-10-13T08:14:52.144Z,20.60
2022-10-13T08:17:18.732Z,20.59
2022-10-13T08:19:45.564Z,20.59
2022-10-13T08:22:12.438Z,20.58
2022-10-13T08:24:38.745Z,20.59
2022-10-13T08:27:05.075Z,20.60
2022-10-13T08:29:31.489Z,20.61
2022-10-13T08:31:57.848Z,20.62
2022-10-13T08:34:24.460Z,20.63
2022-10-13T08:36:53.453Z,20.63
2022-10-13T08:39:21.412Z,20.63
2022-10-13T08:41:48.172Z,20.64
2022-10-13T08:47:24.250Z,20.65
2022-10-13T08:49:50.918Z,20.67
2022-10-13T08:52:23.297Z,20.67
2022-10-13T08:54:50.494Z,20.67
2022-10-13T08:57:18.386Z,20.67
2022-10-13T08:59:45.637Z,20.66
2022-10-13T09:02:15.011Z,20.66
2022-10-13T09:04:44.968Z,20.67
2022-10-13T09:07:26.427Z,20.67
2022-10-13T09:09:54.580Z,20.67
2022-10-13T09:12:24.212Z,20.69
2022-10-13T09:14:58.354Z,20.68
2022-10-13T09:17:26.882Z,20.70
2022-10-13T09:20:21.987Z,20.68
2022-10-13T09:23:02.115Z,20.69
2022-10-13T09:25:29.370Z,20.69
2022-10-13T09:27:59.100Z,20.68
2022-10-13T09:30:38.255Z,20.69
2022-10-13T09:33:04.491Z,20.69
2022-10-13T09:35:33.426Z,20.68
2022-10-13T09:38:10.497Z,20.69
2022-10-13T09:40:37.656Z,20.70
2022-10-13T09:43:22.452Z,20.69
2022-10-13T09:45:48.763Z,20.70
2022-10-13T09:48:25.133Z,20.69
2022-10-13T09:50:54.512Z,20.69
2022-10-13T09:53:37.200Z,20.71
2022-10-13T09:56:18.998Z,20.72
2022-10-13T09:59:08.743Z,20.72
2022-10-13T10:01:41.377Z,20.72
2022-10-13T10:04:14.494Z,20.73
2022-10-13T10:06:41.915Z,20.73
2022-10-13T10:09:34.297Z,20.74
2022-10-13T10:12:02.620Z,20.75
2022-10-13T10:14:36.053Z,20.75
2022-10-13T10:17:24.079Z,20.76
2022-10-13T10:20:30.119Z,20.75
2022-10-13T10:23:22.826Z,20.78
2022-10-13T10:25:59.751Z,20.78
2022-10-13T10:28:39.930Z,20.79
2022-10-13T10:31:43.750Z,20.81
2022-10-13T10:34:30.939Z,20.82
2022-10-13T10:37:06.285Z,20.84
2022-10-13T10:40:03.450Z,20.84
2022-10-13T10:42:59.829Z,20.85
2022-10-13T10:45:31.244Z,20.85
2022-10-13T10:48:02.556Z,20.86
2022-10-13T10:50:30.773Z,20.86
2022-10-13T10:53:05.987Z,20.86
2022-10-13T10:55:34.300Z,20.88
2022-10-13T10:58:20.495Z,20.88
2022-10-13T11:00:58.941Z,20.89
2022-10-13T11:03:38.710Z,20.89
2022-10-13T11:06:35.742Z,20.90
2022-10-13T11:09:04.256Z,20.90
2022-10-13T11:11:37.556Z,20.91
2022-10-13T11:14:10.315Z,20.91
2022-10-13T11:17:02.843Z,20.91
2022-10-13T11:19:29.085Z,20.92
2022-10-13T11:21:55.617Z,20.95
2022-10-13T11:24:34.230Z,20.95
2022-10-13T11:27:15.715Z,20.95
2022-10-13T11:29:57.250Z,20.92
2022-10-13T11:32:35.651Z,20.93
2022-10-13T11:35:04.655Z,20.93
2022-10-13T11:37:55.679Z,20.94
2022-10-13T11:40:45.464Z,20.95
2022-10-13T11:43:26.769Z,20.92
2022-10-13T11:46:16.456Z,20.91
2022-10-13T11:49:07.384Z,20.91
2022-10-13T11:52:02.029Z,20.89
2022-10-13T11:54:28.339Z,20.89
2022-10-13T11:56:57.181Z,20.89
2022-10-13T11:59:29.192Z,20.88
2022-10-13T12:02:05.439Z,20.87
2022-10-13T12:04:31.758Z,20.87
2022-10-13T12:07:07.414Z,20.87
2022-10-13T12:09:56.965Z,20.87
2022-10-13T12:12:24.756Z,20.87
2022-10-13T12:14:53.881Z,20.87
2022-10-13T12:17:32.703Z,20.87
2022-10-13T12:20:19.624Z,20.88
2022-10-13T12:22:50.183Z,20.88
2022-10-13T12:25:18.913Z,20.87
2022-10-13T12:27:51.469Z,20.86
2022-10-13T12:30:25.692Z,20.86
2022-10-13T12:32:54.828Z,20.86
2022-10-13T12:35:23.855Z,20.87
2022-10-13T12:37:51.464Z,20.87
2022-10-13T12:40:18.867Z,20.86
2022-10-13T12:42:46.279Z,20.87
2022-10-13T12:45:21.410Z,20.87
2022-10-13T12:47:50.935Z,20.88
2022-10-13T12:50:29.106Z,20.86
2022-10-13T12:53:17.613Z,20.87
2022-10-13T12:55:55.324Z,20.87
2022-10-13T12:58:25.778Z,20.87
2022-10-13T13:00:56.807Z,20.87
2022-10-13T13:03:28.190Z,20.86
2022-10-13T13:06:07.933Z,20.85
2022-10-13T13:08:34.439Z,20.84
2022-10-13T13:11:03.891Z,20.83
2022-10-13T13:13:30.403Z,20.84
2022-10-13T13:16:20.836Z,20.85
2022-10-13T13:18:49.749Z,20.84
2022-10-13T13:21:18.611Z,20.85
2022-10-13T13:23:51.165Z,20.84
2022-10-13T13:26:23.084Z,20.83
2022-10-13T13:28:54.943Z,20.84
2022-10-13T13:31:23.800Z,20.85
2022-10-13T13:33:50.398Z,20.83
2022-10-13T13:36:24.821Z,20.83
2022-10-13T13:38:52.470Z,20.83
2022-10-13T13:41:19.478Z,20.82
2022-10-13T13:43:45.951Z,20.82
2022-10-13T13:46:24.289Z,20.82
2022-10-13T13:48:51.225Z,20.83
2022-10-13T13:51:17.908Z,20.83
2022-10-13T13:53:44.624Z,20.84
2022-10-13T13:56:16.255Z,20.84
2022-10-13T13:58:43.520Z,20.83
2022-10-13T14:01:11.078Z,20.82
2022-10-13T14:03:37.760Z,20.82
2022-10-13T14:06:04.185Z,20.82
2022-10-13T14:08:35.317Z,20.82
2022-10-13T14:11:06.147Z,20.83
2022-10-13T14:13:33.559Z,20.81
2022-10-13T14:16:02.099Z,20.82
2022-10-13T14:18:28.780Z,20.82
2022-10-13T14:20:55.093Z,20.82
2022-10-13T14:23:21.462Z,20.82
2022-10-13T14:25:47.785Z,20.81
2022-10-13T14:28:18.056Z,20.81
2022-10-13T14:30:44.827Z,20.80
2022-10-13T14:33:11.151Z,20.81
2022-10-13T14:35:37.456Z,20.82
2022-10-13T14:38:03.828Z,20.80
2022-10-13T14:40:30.145Z,20.80
2022-10-13T14:42:56.464Z,20.80
2022-10-13T14:45:22.771Z,20.80
2022-10-13T14:47:52.464Z,20.81
2022-10-13T14:50:18.808Z,20.81
2022-10-13T14:52:45.352Z,20.79
2022-10-13T14:55:11.683Z,20.79
2022-10-13T14:57:38.034Z,20.79
2022-10-13T15:00:04.780Z,20.79
2022-10-13T15:02:31.094Z,20.78
2022-10-13T15:04:57.855Z,20.78
2022-10-13T15:07:24.294Z,20.77
2022-10-13T15:10:04.985Z,20.77
2022-10-13T15:12:32.464Z,20.78
2022-10-13T15:14:58.773Z,20.76
2022-10-13T15:17:25.316Z,20.75
2022-10-13T15:19:51.638Z,20.77
2022-10-13T15:22:18.083Z,20.77
2022-10-13T15:24:45.569Z,20.77
2022-10-13T15:27:11.866Z,20.77
2022-10-13T15:29:38.199Z,20.77
2022-10-13T15:32:12.538Z,20.75
2022-10-13T15:34:39.908Z,20.77
2022-10-13T15:37:06.731Z,20.75
2022-10-13T15:39:33.031Z,20.75
2022-10-13T15:41:59.491Z,20.75
2022-10-13T15:44:25.898Z,20.74
2022-10-13T15:47:07.398Z,20.74
2022-10-13T15:49:39.085Z,20.74
2022-10-13T15:52:05.593Z,20.74
2022-10-13T15:54:32.126Z,20.72
2022-10-13T15:56:58.431Z,20.71
2022-10-13T15:59:25.530Z,20.70
2022-10-13T16:01:51.910Z,20.68
2022-10-13T16:04:18.226Z,20.67
2022-10-13T16:06:44.613Z,20.67
2022-10-13T16:09:10.923Z,20.67
2022-10-13T16:11:37.844Z,20.67
2022-10-13T16:14:04.147Z,20.67
2022-10-13T16:16:30.603Z,20.66
2022-10-13T16:18:57.066Z,20.66
2022-10-13T16:21:25.917Z,20.68
2022-10-13T16:23:52.696Z,20.68
2022-10-13T16:26:19.457Z,20.66
2022-10-13T16:28:46.643Z,20.69
2022-10-13T16:31:16.420Z,20.70
2022-10-13T16:33:44.666Z,20.71
2022-10-13T16:36:16.483Z,20.72
2022-10-13T16:38:46.903Z,20.71
2022-10-13T16:41:16.864Z,20.71
2022-10-13T16:43:44.414Z,20.70
2022-10-13T16:46:15.943Z,20.71
2022-10-13T16:48:43.891Z,20.73
2022-10-13T16:51:14.667Z,20.72
2022-10-13T16:53:41.349Z,20.74
2022-10-13T16:56:08.358Z,20.73
2022-10-13T16:58:35.251Z,20.74
2022-10-13T17:01:03.423Z,20.74
2022-10-13T17:03:29.786Z,20.74
2022-10-13T17:05:56.170Z,20.76
2022-10-13T17:08:22.526Z,20.76
2022-10-13T17:10:55.909Z,20.77
2022-10-13T17:13:24.256Z,20.78
2022-10-13T17:15:55.028Z,20.79
2022-10-13T17:18:22.075Z,20.80
2022-10-13T17:20:59.643Z,20.81
2022-10-13T17:23:27.211Z,20.82
2022-10-13T17:25:54.720Z,20.82
2022-10-13T17:28:21.900Z,20.82
2022-10-13T17:31:02.703Z,20.83
2022-10-13T17:33:30.870Z,20.83
2022-10-13T17:36:01.928Z,20.82
2022-10-13T17:38:29.148Z,20.83
2022-10-13T17:41:00.574Z,20.86
2022-10-13T17:43:27.378Z,20.88
2022-10-13T17:45:53.864Z,20.88
2022-10-13T17:48:23.109Z,20.90
2022-10-13T17:50:49.661Z,20.91
2022-10-13T17:53:16.185Z,20.91
2022-10-13T17:55:42.482Z,20.93
2022-10-13T17:58:08.801Z,20.95
2022-10-13T18:00:54.125Z,20.94
2022-10-13T18:03:21.567Z,20.96
2022-10-13T18:05:47.909Z,20.97
2022-10-13T18:08:14.251Z,20.97
2022-10-13T18:11:07.161Z,20.98
2022-10-13T18:13:26.850Z,20.98
2022-10-13T18:15:53.169Z,21.00
2022-10-13T18:18:19.550Z,20.99
2022-10-13T18:20:45.868Z,21.00
2022-10-13T18:23:12.187Z,21.02
2022-10-13T18:25:38.687Z,21.01
2022-10-13T18:28:04.986Z,21.02
2022-10-13T18:30:31.973Z,21.03
2022-10-13T18:32:58.307Z,21.03
2022-10-13T18:35:27.551Z,21.03
2022-10-13T18:37:56.306Z,21.04
2022-10-13T18:40:22.638Z,21.03
2022-10-13T18:42:54.202Z,21.04
2022-10-13T18:45:21.063Z,21.06
2022-10-13T18:47:51.087Z,21.08
2022-10-13T18:50:17.589Z,21.09
2022-10-13T18:52:43.907Z,21.10
2022-10-13T18:55:10.275Z,21.07
2022-10-13T18:57:37.907Z,21.07
2022-10-13T19:00:06.673Z,21.08
2022-10-13T19:02:33.401Z,21.09
2022-10-13T19:04:59.712Z,21.08
2022-10-13T19:07:26.007Z,21.09
2022-10-13T19:09:53.303Z,21.08
2022-10-13T19:12:19.632Z,21.09
2022-10-13T19:14:45.955Z,21.09
2022-10-13T19:17:12.270Z,21.08
2022-10-13T19:19:39.035Z,21.08
2022-10-13T19:22:07.521Z,21.09
2022-10-13T19:24:33.816Z,21.09
2022-10-13T19:27:00.155Z,21.09
2022-10-13T19:29:26.731Z,21.10
2022-10-13T19:31:53.157Z,21.09
2022-10-13T19:34:19.596Z,21.10
2022-10-13T19:36:47.320Z,21.10
2022-10-13T19:39:15.317Z,21.12
2022-10-13T19:41:43.114Z,21.11
2022-10-13T19:44:09.498Z,21.12
2022-10-13T19:46:36.402Z,21.12
2022-10-13T19:49:04.063Z,21.13
2022-10-13T19:51:30.557Z,21.13
2022-10-13T19:53:56.892Z,21.12
2022-10-13T19:56:25.950Z,21.13
2022-10-13T19:58:53.180Z,21.12
2022-10-13T20:01:20.437Z,21.13
2022-10-13T20:03:47.665Z,21.12
2022-10-13T20:06:14.519Z,21.13
2022-10-13T20:08:41.035Z,21.11
2022-10-13T20:11:12.387Z,21.12
2022-10-13T20:13:38.888Z,21.12
2022-10-13T20:16:16.958Z,21.12
2022-10-13T20:18:43.364Z,21.12
2022-10-13T20:21:12.007Z,21.12
2022-10-13T20:23:40.504Z,21.13
2022-10-13T20:26:12.629Z,21.13
2022-10-13T20:28:43.118Z,21.12
2022-10-13T20:31:10.511Z,21.12
2022-10-13T20:33:36.871Z,21.12
2022-10-13T20:36:06.705Z,21.12
2022-10-13T20:38:37.172Z,21.12
2022-10-13T20:41:07.355Z,21.10
2022-10-13T20:43:34.661Z,21.10
2022-10-13T20:46:06.144Z,21.10
2022-10-13T20:48:57.912Z,21.09
2022-10-13T20:51:22.917Z,21.10
2022-10-13T20:53:49.658Z,21.08
2022-10-13T20:56:19.008Z,21.08
2022-10-13T20:58:46.387Z,21.07
2022-10-13T21:01:13.537Z,21.09
2022-10-13T21:03:40.099Z,21.10
2022-10-13T21:06:08.910Z,21.09
2022-10-13T21:08:35.755Z,21.08
2022-10-13T21:11:08.274Z,21.09
2022-10-13T21:13:35.284Z,21.08
2022-10-13T21:16:09.432Z,21.07
2022-10-13T21:18:35.769Z,21.09
2022-10-13T21:21:07.371Z,21.08
2022-10-13T21:23:34.410Z,21.08
2022-10-13T21:26:02.687Z,21.07
2022-10-13T21:28:29.912Z,21.06
2022-10-13T21:31:01.132Z,21.07
2022-10-13T21:33:27.520Z,21.07
2022-10-13T21:35:53.952Z,21.05
2022-10-13T21:38:20.485Z,21.04
2022-10-13T21:40:49.371Z,21.03
2022-10-13T21:43:19.854Z,21.03
2022-10-13T21:45:46.178Z,21.02
2022-10-13T21:48:12.499Z,21.00
2022-10-13T21:50:38.796Z,21.00
2022-10-13T21:53:05.117Z,20.99
2022-10-13T21:55:32.920Z,20.99
2022-10-13T21:58:05.232Z,20.98
2022-10-13T22:00:32.670Z,20.98
2022-10-13T22:02:59.085Z,20.99
2022-10-13T22:05:25.460Z,20.97
2022-10-13T22:07:51.820Z,20.97
2022-10-13T22:10:18.366Z,20.97
2022-10-13T22:12:44.741Z,20.97
2022-10-13T22:15:11.577Z,20.97
2022-10-13T22:17:37.953Z,20.95
2022-10-13T22:20:04.619Z,20.96
2022-10-13T22:22:31.218Z,20.94
2022-10-13T22:24:57.581Z,20.95
2022-10-13T22:27:24.019Z,20.95
2022-10-13T22:29:50.363Z,20.95
2022-10-13T22:32:16.682Z,20.93
2022-10-13T22:34:42.999Z,20.93
2022-10-13T22:37:09.294Z,20.93
2022-10-13T22:39:35.613Z,20.93
2022-10-13T22:42:01.923Z,20.92
2022-10-13T22:44:28.237Z,20.92
2022-10-13T22:46:54.569Z,20.91
2022-10-13T22:49:20.899Z,20.90
2022-10-13T22:51:47.235Z,20.91
2022-10-13T22:54:13.521Z,20.90
2022-10-13T22:56:40.348Z,20.91
2022-10-13T22:59:08.109Z,20.90
2022-10-13T23:01:34.823Z,20.91
2022-10-13T23:04:01.214Z,20.89
2022-10-13T23:06:33.024Z,20.89
2022-10-13T23:09:00.518Z,20.89
2022-10-13T23:11:26.984Z,20.89
2022-10-13T23:13:53.553Z,20.88
2022-10-13T23:16:23.060Z,20.87
2022-10-13T23:18:49.943Z,20.89
2022-10-13T23:21:18.861Z,20.87
2022-10-13T23:23:45.699Z,20.89
2022-10-13T23:26:16.619Z,20.87
2022-10-13T23:28:43.768Z,20.86
2022-10-13T23:31:15.236Z,20.87
2022-10-13T23:33:41.858Z,20.86
2022-10-13T23:36:12.864Z,20.86
2022-10-13T23:38:39.368Z,20.87
2022-10-13T23:41:08.354Z,20.85
2022-10-13T23:43:35.406Z,20.86
2022-10-13T23:46:01.865Z,20.85
2022-10-13T23:48:29.019Z,20.85
2022-10-13T23:50:55.483Z,20.85
2022-10-13T23:53:21.926Z,20.84
2022-10-13T23:55:48.487Z,20.85
2022-10-13T23:58:14.915Z,20.84
